Time;durP1;ratioP1;P1;durP2;ratioP2;P2;SDS_P1;SDS_P2;PMS_P1;PMS_P2;Temp;Humidity;BMP_temperature;BMP_pressure;BME280_temperature;BME280_humidity;BME280_pressure;Samples;Min_cycle;Max_cycle;Signal;HPM_P1;HPM_P2
2023/11/03 00:00:34;;;;;;;38.50;28.70;;;;;;;5.41;71.37;99924.39;105374;1254;60365;-72
2023/11/03 00:03:05;;;;;;;43.20;28.50;;;;;;;5.41;71.39;99927.58;105608;1259;60869;-72
2023/11/03 00:05:32;;;;;;;40.90;29.40;;;;;;;5.40;71.34;99932.31;105681;1254;65147;-71
2023/11/03 00:07:59;;;;;;;41.00;28.50;;;;;;;5.38;71.37;99939.78;106448;1258;60352;-72
2023/11/03 00:10:27;;;;;;;39.70;29.00;;;;;;;5.36;71.43;99938.34;105647;1260;63084;-72
2023/11/03 00:12:53;;;;;;;42.00;28.50;;;;;;;5.34;71.45;99939.16;105610;1257;60456;-72
2023/11/03 00:15:22;;;;;;;44.40;30.90;;;;;;;5.32;71.45;99939.11;105959;1259;60516;-72
2023/11/03 00:17:49;;;;;;;43.10;30.00;;;;;;;5.30;71.31;99937.20;105596;1254;63867;-75
2023/11/03 00:20:16;;;;;;;42.70;29.90;;;;;;;5.26;71.35;99931.30;105575;1254;60449;-74
2023/11/03 00:22:43;;;;;;;41.20;29.60;;;;;;;5.23;71.31;99928.90;105715;1254;63967;-73
2023/11/03 00:25:13;;;;;;;41.80;29.70;;;;;;;5.19;71.17;99928.45;105778;1257;60476;-72
2023/11/03 00:27:40;;;;;;;47.40;30.40;;;;;;;5.13;71.08;99924.81;105802;1254;60435;-71
2023/11/03 00:30:08;;;;;;;40.70;28.80;;;;;;;5.07;71.16;99920.67;105799;1254;65107;-72
2023/11/03 00:32:35;;;;;;;38.70;27.80;;;;;;;5.02;71.12;99920.99;105687;1256;60559;-72
2023/11/03 00:35:02;;;;;;;37.80;27.10;;;;;;;4.98;71.15;99918.30;105606;1256;64018;-70
2023/11/03 00:37:29;;;;;;;40.00;27.70;;;;;;;4.95;71.11;99913.95;105771;1254;60482;-71
2023/11/03 00:39:55;;;;;;;34.00;26.60;;;;;;;4.94;71.28;99913.31;105677;1254;245589;-71
2023/11/03 00:42:22;;;;;;;39.90;27.00;;;;;;;4.93;71.30;99913.54;105889;1260;64988;-72
2023/11/03 00:44:48;;;;;;;37.70;27.10;;;;;;;4.93;71.34;99921.05;106182;1255;60421;-76
2023/11/03 00:47:15;;;;;;;34.60;26.20;;;;;;;4.93;71.39;99920.20;105848;1255;65303;-71
2023/11/03 00:49:41;;;;;;;37.70;26.10;;;;;;;4.93;71.52;99917.73;105727;1260;60527;-70
2023/11/03 00:52:08;;;;;;;35.70;26.10;;;;;;;4.93;71.53;99919.31;105478;1254;60517;-71
2023/11/03 00:54:35;;;;;;;35.50;25.70;;;;;;;4.93;71.47;99915.80;105630;1254;65204;-71
2023/11/03 00:57:02;;;;;;;34.20;24.10;;;;;;;4.94;71.50;99914.71;105574;1255;60553;-72
2023/11/03 00:59:29;;;;;;;30.90;23.00;;;;;;;4.94;71.56;99915.73;105722;1254;64049;-74
2023/11/03 01:01:55;;;;;;;29.90;22.70;;;;;;;4.94;71.58;99916.10;105641;1254;60357;-73
2023/11/03 01:04:23;;;;;;;30.00;23.10;;;;;;;4.94;71.62;99911.75;105603;1257;60434;-73
2023/11/03 01:06:49;;;;;;;31.30;23.00;;;;;;;4.94;71.74;99907.02;105796;1254;65668;-72
2023/11/03 01:09:17;;;;;;;27.90;22.20;;;;;;;4.96;71.88;99903.20;105715;1254;60450;-73
2023/11/03 01:11:43;;;;;;;31.30;21.40;;;;;;;4.99;71.98;99904.27;105772;1254;63863;-72
2023/11/03 01:14:10;;;;;;;29.30;21.20;;;;;;;5.01;72.11;99902.36;105772;1254;60466;-72
2023/11/03 01:16:38;;;;;;;29.20;21.80;;;;;;;5.04;72.08;99904.45;106079;1254;60489;-72
2023/11/03 01:19:05;;;;;;;27.80;21.40;;;;;;;5.05;72.04;99902.11;106129;1254;67026;-72
2023/11/03 01:21:32;;;;;;;28.20;20.10;;;;;;;5.06;72.06;99904.67;106193;1254;60485;-72
2023/11/03 01:24:00;;;;;;;25.70;19.60;;;;;;;5.07;72.06;99909.34;105709;1254;65741;-73
2023/11/03 01:26:26;;;;;;;24.70;18.00;;;;;;;5.07;72.02;99913.32;105625;1258;60454;-74
2023/11/03 01:28:53;;;;;;;26.80;19.30;;;;;;;5.07;71.99;99911.58;105650;1254;60870;-71
2023/11/03 01:31:20;;;;;;;25.20;18.60;;;;;;;5.05;71.99;99909.65;105633;1256;65282;-72
2023/11/03 01:33:48;;;;;;;22.10;18.00;;;;;;;5.03;72.06;99910.30;105730;1256;60541;-72
2023/11/03 01:36:15;;;;;;;23.80;18.30;;;;;;;5.02;72.04;99910.34;105705;1256;65316;-72
2023/11/03 01:38:44;;;;;;;24.00;18.20;;;;;;;5.02;72.12;99910.36;105678;1260;60467;-72
2023/11/03 01:41:12;;;;;;;23.70;18.10;;;;;;;4.98;72.05;99911.29;105778;1254;60463;-73
2023/11/03 01:43:39;;;;;;;23.90;17.60;;;;;;;4.94;72.06;99920.27;105705;1254;63882;-73
2023/11/03 01:46:06;;;;;;;23.90;18.40;;;;;;;4.92;72.10;99924.79;105791;1257;60380;-74
2023/11/03 01:48:33;;;;;;;23.80;17.00;;;;;;;4.93;72.25;99928.21;105609;1257;62720;-74
2023/11/03 01:51:00;;;;;;;21.60;16.80;;;;;;;4.93;72.33;99930.10;105689;1258;60351;-72
2023/11/03 01:53:28;;;;;;;22.70;17.80;;;;;;;4.95;72.51;99934.52;105664;1254;60432;-73
2023/11/03 01:55:56;;;;;;;23.90;18.20;;;;;;;5.00;72.73;99934.58;105891;1257;65236;-73
2023/11/03 01:58:23;;;;;;;23.60;17.60;;;;;;;5.07;72.90;99926.27;105535;1254;60573;-73
2023/11/03 02:00:50;;;;;;;20.60;16.30;;;;;;;5.13;72.93;99924.64;105631;1254;62565;-73
2023/11/03 02:03:17;;;;;;;22.20;16.60;;;;;;;5.18;73.06;99923.64;105594;1254;60342;-74
2023/11/03 02:05:44;;;;;;;20.00;16.00;;;;;;;5.21;73.01;99929.72;105693;1254;60434;-73
2023/11/03 02:08:11;;;;;;;19.90;15.30;;;;;;;5.23;73.03;99925.81;105763;1254;63964;-73
2023/11/03 02:10:42;;;;;;;21.70;15.30;;;;;;;5.24;73.15;99925.00;105682;1254;60498;-73
2023/11/03 02:13:12;;;;;;;19.10;15.30;;;;;;;5.26;73.20;99926.08;105670;1260;64075;-72
2023/11/03 02:15:40;;;;;;;22.60;16.50;;;;;;;5.28;73.19;99926.84;105927;1256;60392;-72
2023/11/03 02:18:09;;;;;;;22.20;16.00;;;;;;;5.29;73.21;99930.26;106162;1254;60534;-73
2023/11/03 02:20:36;;;;;;;19.90;15.10;;;;;;;5.29;73.18;99933.36;105811;1254;63759;-72
2023/11/03 02:23:06;;;;;;;19.30;14.90;;;;;;;5.29;73.18;99931.79;105772;1254;60417;-71
2023/11/03 02:25:33;;;;;;;19.00;14.50;;;;;;;5.29;73.12;99931.11;106290;1257;64051;-73
2023/11/03 02:27:59;;;;;;;18.20;15.20;;;;;;;5.27;73.05;99927.91;105797;1254;61023;-72
2023/11/03 02:30:27;;;;;;;17.90;14.40;;;;;;;5.25;72.96;99931.41;105785;1254;60425;-73
2023/11/03 02:32:54;;;;;;;19.60;14.40;;;;;;;5.22;73.04;99934.73;105942;1254;63704;-71
2023/11/03 02:35:21;;;;;;;17.20;13.60;;;;;;;5.20;72.91;99939.92;105636;1254;60457;-73
2023/11/03 02:37:47;;;;;;;20.20;14.30;;;;;;;5.16;72.87;99942.74;105608;1254;64102;-72
2023/11/03 02:40:14;;;;;;;17.50;13.90;;;;;;;5.15;72.87;99947.39;105764;1258;60540;-73
2023/11/03 02:42:41;;;;;;;19.40;14.50;;;;;;;5.12;72.75;99951.77;105716;1254;60437;-72
2023/11/03 02:45:10;;;;;;;18.20;14.20;;;;;;;5.11;72.79;99951.45;105770;1256;65039;-75
2023/11/03 02:47:37;;;;;;;17.40;13.90;;;;;;;5.12;72.73;99951.44;105726;1254;60181;-73
2023/11/03 02:50:05;;;;;;;18.90;14.10;;;;;;;5.09;72.68;99951.05;105758;1254;64189;-72
2023/11/03 02:52:32;;;;;;;18.30;13.80;;;;;;;5.04;72.61;99951.39;105487;1256;60349;-74
2023/11/03 02:54:58;;;;;;;17.20;13.10;;;;;;;5.01;72.64;99946.20;105648;1254;60457;-72
2023/11/03 02:57:25;;;;;;;18.70;14.10;;;;;;;4.98;72.68;99945.52;106039;1256;66227;-71
2023/11/03 02:59:52;;;;;;;19.60;14.00;;;;;;;4.94;72.57;99942.98;105830;1255;60546;-73
2023/11/03 03:02:18;;;;;;;19.20;14.90;;;;;;;4.91;72.53;99946.45;106240;1254;60367;-74
2023/11/03 03:04:45;;;;;;;18.30;13.80;;;;;;;4.87;72.46;99948.41;105647;1257;60416;-73
2023/11/03 03:07:12;;;;;;;18.70;13.50;;;;;;;4.86;72.55;99951.84;106153;1254;60473;-72
2023/11/03 03:09:39;;;;;;;19.10;14.60;;;;;;;4.87;72.60;99955.60;105875;1256;65281;-72
2023/11/03 03:12:06;;;;;;;18.70;14.10;;;;;;;4.89;72.68;99955.85;105408;1254;60367;-73
2023/11/03 03:14:33;;;;;;;18.50;14.30;;;;;;;4.91;72.69;99950.45;105738;1259;62465;-74
2023/11/03 03:17:00;;;;;;;20.00;14.10;;;;;;;4.93;72.67;99948.11;106044;1260;60312;-74
2023/11/03 03:19:27;;;;;;;16.40;13.30;;;;;;;4.95;72.64;99951.14;105931;1256;60497;-72
2023/11/03 03:21:54;;;;;;;18.30;14.40;;;;;;;4.94;72.61;99950.80;105601;1256;65077;-72
2023/11/03 03:24:20;;;;;;;17.10;13.30;;;;;;;4.92;72.45;99960.89;105938;1257;60528;-74
2023/11/03 03:26:47;;;;;;;18.10;13.80;;;;;;;4.87;72.26;99959.42;105852;1253;62651;-75
2023/11/03 03:29:14;;;;;;;18.50;14.20;;;;;;;4.83;72.21;99963.18;105800;1257;60387;-74
2023/11/03 03:31:41;;;;;;;17.40;13.50;;;;;;;4.82;72.36;99963.40;105816;1254;60436;-73
2023/11/03 03:34:07;;;;;;;19.60;14.40;;;;;;;4.83;72.50;99962.17;105892;1254;65219;-72
2023/11/03 03:36:34;;;;;;;19.50;14.80;;;;;;;4.85;72.65;99964.09;105794;1258;60447;-72
2023/11/03 03:39:01;;;;;;;21.80;15.90;;;;;;;4.88;72.69;99964.93;105694;1254;64064;-71
2023/11/03 03:41:28;;;;;;;24.30;16.90;;;;;;;4.92;72.83;99961.76;105776;1254;60433;-72
2023/11/03 03:43:55;;;;;;;22.30;16.90;;;;;;;4.96;72.81;99961.36;105675;1260;60366;-72
2023/11/03 03:46:21;;;;;;;20.30;15.50;;;;;;;4.97;72.82;99959.31;105712;1259;65108;-74
2023/11/03 03:48:50;;;;;;;20.00;15.70;;;;;;;4.96;72.63;99959.40;105806;1254;60424;-72
2023/11/03 03:51:16;;;;;;;21.40;16.10;;;;;;;4.94;72.50;99958.85;105768;1254;63920;-73
2023/11/03 03:53:43;;;;;;;19.40;15.50;;;;;;;4.91;72.44;99953.95;105735;1255;60447;-73
2023/11/03 03:56:09;;;;;;;23.70;15.60;;;;;;;4.88;72.39;99951.33;105566;1254;60342;-73
2023/11/03 03:58:39;;;;;;;21.30;16.00;;;;;;;4.86;72.35;99951.27;105454;1254;63905;-76
2023/11/03 04:01:07;;;;;;;21.50;16.10;;;;;;;4.85;72.40;99946.86;105786;1254;60449;-72
2023/11/03 04:03:35;;;;;;;22.20;16.20;;;;;;;4.83;72.37;99942.60;105536;1254;62437;-73
2023/11/03 04:06:03;;;;;;;19.90;15.80;;;;;;;4.81;72.42;99938.89;105440;1256;60451;-73
2023/11/03 04:08:31;;;;;;;20.70;15.40;;;;;;;4.79;72.51;99935.83;105658;1254;60450;-73
2023/11/03 04:10:58;;;;;;;19.80;15.40;;;;;;;4.79;72.41;99930.98;105688;1258;65025;-78
2023/11/03 04:13:24;;;;;;;20.30;15.00;;;;;;;4.79;72.45;99929.90;106258;1254;60444;-74
2023/11/03 04:15:52;;;;;;;21.10;15.40;;;;;;;4.80;72.57;99928.11;106046;1256;64143;-72
2023/11/03 04:18:18;;;;;;;20.80;14.20;;;;;;;4.82;72.66;99925.56;106177;1257;59259;-72
2023/11/03 04:20:45;;;;;;;17.80;13.70;;;;;;;4.86;72.75;99924.27;105749;1254;60447;-71
2023/11/03 04:23:13;;;;;;;17.20;13.40;;;;;;;4.89;72.62;99921.64;106131;1256;65287;-72
2023/11/03 04:25:40;;;;;;;20.10;14.20;;;;;;;4.91;72.67;99918.90;106103;1253;60403;-73
2023/11/03 04:28:07;;;;;;;18.60;14.60;;;;;;;4.91;72.68;99914.89;106101;1254;63965;-73
2023/11/03 04:30:35;;;;;;;20.50;13.90;;;;;;;4.92;72.71;99908.73;105747;1259;60396;-73
2023/11/03 04:33:03;;;;;;;20.00;14.00;;;;;;;4.94;72.72;99910.84;105870;1258;60295;-73
2023/11/03 04:35:30;;;;;;;18.80;13.90;;;;;;;4.97;72.77;99907.53;105662;1254;65267;-73
2023/11/03 04:37:57;;;;;;;19.10;13.20;;;;;;;5.00;72.82;99900.35;105869;1256;60348;-78
2023/11/03 04:40:24;;;;;;;18.30;13.30;;;;;;;5.04;72.84;99897.52;105879;1253;62673;-73
2023/11/03 04:42:51;;;;;;;20.20;13.70;;;;;;;5.06;72.87;99897.38;105889;1256;60441;-74
2023/11/03 04:45:19;;;;;;;18.10;13.50;;;;;;;5.07;72.88;99897.09;105737;1256;60484;-74
2023/11/03 04:47:46;;;;;;;16.30;13.30;;;;;;;5.08;72.86;99901.21;106012;1254;65267;-72
2023/11/03 04:50:13;;;;;;;18.10;13.40;;;;;;;5.07;72.91;99900.23;105777;1257;60550;-72
2023/11/03 04:52:40;;;;;;;16.00;12.50;;;;;;;5.07;72.95;99895.89;105881;1254;64115;-73
2023/11/03 04:55:08;;;;;;;21.10;12.50;;;;;;;5.07;73.05;99895.18;105755;1256;60367;-72
2023/11/03 04:57:35;;;;;;;18.30;13.00;;;;;;;5.08;73.06;99895.14;106126;1254;60815;-72
2023/11/03 05:00:08;;;;;;;16.50;12.50;;;;;;;5.08;73.08;99894.77;105921;1254;63959;-74
2023/11/03 05:02:36;;;;;;;12.70;9.40;;;;;;;5.09;73.15;99894.68;105680;1256;60466;-73
2023/11/03 05:05:04;;;;;;;17.40;11.90;;;;;;;5.11;73.16;99898.44;105710;1256;64102;-73
2023/11/03 05:07:33;;;;;;;16.10;12.30;;;;;;;5.10;73.15;99898.45;105847;1259;60551;-73
2023/11/03 05:10:00;;;;;;;19.80;12.40;;;;;;;5.10;73.12;99901.09;106012;1256;61135;-73
2023/11/03 05:12:27;;;;;;;18.60;11.40;;;;;;;5.08;73.20;99904.34;105820;1257;65183;-77
2023/11/03 05:14:53;;;;;;;13.10;11.20;;;;;;;5.08;73.23;99906.25;105771;1255;60437;-75
2023/11/03 05:17:21;;;;;;;15.50;11.10;;;;;;;5.11;73.29;99910.29;105782;1254;60421;-73
2023/11/03 05:19:48;;;;;;;15.50;11.20;;;;;;;5.13;73.33;99910.83;106119;1256;60476;-77
2023/11/03 05:22:15;;;;;;;12.90;10.30;;;;;;;5.15;73.33;99910.55;105861;1254;60453;-75
2023/11/03 05:24:45;;;;;;;14.80;11.20;;;;;;;5.16;73.45;99907.86;105526;1254;65031;-73
2023/11/03 05:27:13;;;;;;;14.40;9.90;;;;;;;5.19;73.54;99909.41;105629;1259;60338;-72
2023/11/03 05:29:40;;;;;;;14.90;9.60;;;;;;;5.25;73.63;99910.09;106186;1256;63926;-72
2023/11/03 05:32:06;;;;;;;11.50;9.30;;;;;;;5.33;73.83;99914.63;105743;1254;60470;-74
2023/11/03 05:34:34;;;;;;;12.60;9.80;;;;;;;5.42;73.95;99917.52;105749;1257;60521;-72
2023/11/03 05:37:01;;;;;;;12.30;10.00;;;;;;;5.51;73.99;99922.55;105659;1258;65294;-72
2023/11/03 05:39:27;;;;;;;13.40;9.90;;;;;;;5.57;73.95;99930.52;105562;1254;60555;-78
2023/11/03 05:41:54;;;;;;;14.50;10.00;;;;;;;5.63;74.00;99931.52;105965;1255;64583;-74
2023/11/03 05:44:21;;;;;;;13.40;9.80;;;;;;;5.71;74.07;99931.52;105844;1259;60450;-76
2023/11/03 05:46:48;;;;;;;13.50;10.10;;;;;;;5.79;74.19;99929.20;106045;1254;60390;-73
2023/11/03 05:49:15;;;;;;;11.80;9.50;;;;;;;5.90;74.38;99924.98;105762;1254;65364;-73
2023/11/03 05:51:42;;;;;;;13.30;10.20;;;;;;;6.03;74.52;99919.80;105848;1254;60467;-72
2023/11/03 05:54:09;;;;;;;13.60;10.40;;;;;;;6.17;74.69;99921.81;106139;1254;63944;-73
2023/11/03 05:56:35;;;;;;;13.60;10.90;;;;;;;6.32;74.86;99927.08;105781;1254;61363;-73
2023/11/03 05:59:02;;;;;;;15.50;11.00;;;;;;;6.48;75.12;99928.02;105840;1253;61366;-73
2023/11/03 06:01:33;;;;;;;16.90;12.00;;;;;;;6.66;75.22;99923.09;105906;1254;66483;-75
2023/11/03 06:04:00;;;;;;;19.40;10.90;;;;;;;6.80;75.28;99915.06;105802;1254;61391;-73
2023/11/03 06:06:27;;;;;;;17.00;11.50;;;;;;;6.95;75.21;99912.45;105842;1254;64083;-80
2023/11/03 06:08:55;;;;;;;15.50;12.30;;;;;;;7.11;75.13;99909.19;105694;1254;61324;-73
2023/11/03 06:11:22;;;;;;;13.10;10.70;;;;;;;7.26;74.87;99912.14;105903;1254;61270;-75
2023/11/03 06:13:49;;;;;;;12.20;9.60;;;;;;;7.39;74.67;99915.20;105722;1257;66046;-83
2023/11/03 06:16:20;;;;;;;14.30;10.30;;;;;;;7.51;74.41;99915.73;105749;1254;61282;-71
2023/11/03 06:18:47;;;;;;;13.00;9.80;;;;;;;7.61;74.07;99916.91;105970;1254;63814;-71
2023/11/03 06:21:17;;;;;;;11.70;10.10;;;;;;;7.71;73.72;99919.65;105526;1255;61269;-75
2023/11/03 06:23:44;;;;;;;12.40;9.70;;;;;;;7.81;73.51;99921.86;105683;1254;61230;-72
2023/11/03 06:26:11;;;;;;;13.50;9.40;;;;;;;7.90;73.11;99921.89;105729;1256;66117;-73
2023/11/03 06:28:38;;;;;;;11.10;9.30;;;;;;;7.98;72.74;99922.54;106057;1254;61323;-73
2023/11/03 06:31:05;;;;;;;9.80;8.40;;;;;;;8.04;72.44;99916.12;105724;1257;63825;-70
2023/11/03 06:33:31;;;;;;;17.60;9.10;;;;;;;8.10;72.09;99913.90;106045;1259;61330;-73
2023/11/03 06:35:59;;;;;;;13.30;8.50;;;;;;;8.16;71.66;99907.11;105934;1255;61577;-71
2023/11/03 06:38:26;;;;;;;11.80;8.30;;;;;;;8.22;71.31;99899.98;106165;1257;66002;-71
2023/11/03 06:40:53;;;;;;;16.90;9.30;;;;;;;8.30;70.94;99893.60;105843;1254;61261;-71
2023/11/03 06:43:19;;;;;;;12.10;9.90;;;;;;;8.38;70.62;99889.67;106027;1256;64062;-72
2023/11/03 06:45:46;;;;;;;10.80;8.50;;;;;;;8.43;70.26;99888.55;105649;1254;61147;-71
2023/11/03 06:48:13;;;;;;;11.20;8.40;;;;;;;8.48;69.93;99884.28;105858;1259;61259;-71
2023/11/03 06:50:39;;;;;;;14.10;8.60;;;;;;;8.54;69.55;99885.78;105732;1254;61230;-75
2023/11/03 06:53:09;;;;;;;11.10;8.60;;;;;;;8.59;69.24;99888.35;106083;1254;61263;-71
2023/11/03 06:55:36;;;;;;;12.20;8.20;;;;;;;8.63;69.05;99885.59;106022;1254;62590;-71
2023/11/03 06:58:02;;;;;;;11.00;8.30;;;;;;;8.68;68.83;99882.20;105732;1254;61330;-70
2023/11/03 07:00:30;;;;;;;12.60;8.50;;;;;;;8.74;68.67;99877.50;106141;1254;61224;-75
2023/11/03 07:02:57;;;;;;;15.10;11.80;;;;;;;8.81;68.47;99873.98;105909;1259;65913;-70
2023/11/03 07:05:24;;;;;;;14.50;10.30;;;;;;;8.87;68.18;99866.80;106548;1253;61366;-74
2023/11/03 07:07:51;;;;;;;11.00;8.80;;;;;;;8.94;67.93;99864.81;105911;1254;64013;-73
2023/11/03 07:10:17;;;;;;;12.10;8.10;;;;;;;9.02;67.60;99865.96;106030;1254;61204;-74
2023/11/03 07:12:45;;;;;;;9.30;7.00;;;;;;;9.09;67.20;99862.39;106134;1254;61311;-74
2023/11/03 07:15:11;;;;;;;9.90;7.40;;;;;;;9.16;66.70;99864.96;105984;1254;64596;-72
2023/11/03 07:17:41;;;;;;;8.50;7.00;;;;;;;9.23;66.53;99864.93;106049;1260;61400;-72
2023/11/03 07:20:08;;;;;;;10.40;7.30;;;;;;;9.31;66.19;99864.23;106225;1254;63863;-77
2023/11/03 07:22:35;;;;;;;10.10;7.00;;;;;;;9.41;65.86;99868.55;105901;1258;61135;-74
2023/11/03 07:25:02;;;;;;;11.40;7.20;;;;;;;9.49;65.63;99865.20;106329;1254;61183;-73
2023/11/03 07:27:29;;;;;;;11.20;7.60;;;;;;;9.58;65.28;99864.65;106338;1254;74295;-74
2023/11/03 07:29:56;;;;;;;10.70;7.00;;;;;;;9.66;65.07;99864.36;105856;1254;61399;-74
2023/11/03 07:32:23;;;;;;;10.70;7.20;;;;;;;9.74;64.83;99861.55;106062;1257;61282;-73
2023/11/03 07:34:49;;;;;;;10.20;8.10;;;;;;;9.81;64.52;99861.83;106374;1254;61311;-77
2023/11/03 07:37:17;;;;;;;11.40;7.10;;;;;;;9.89;64.30;99857.35;105595;1254;61237;-73
2023/11/03 07:39:44;;;;;;;9.10;7.10;;;;;;;9.96;64.08;99858.42;105975;1254;66701;-74
2023/11/03 07:42:11;;;;;;;20.70;13.20;;;;;;;10.03;63.51;99861.55;106005;1254;61276;-75
2023/11/03 07:44:38;;;;;;;34.70;26.20;;;;;;;10.09;63.27;99862.80;105726;1257;64057;-74
2023/11/03 07:47:08;;;;;;;11.90;8.60;;;;;;;10.15;63.13;99862.41;105999;1254;61335;-73
2023/11/03 07:49:36;;;;;;;8.60;6.90;;;;;;;10.22;63.05;99861.52;105894;1255;62007;-74
2023/11/03 07:52:02;;;;;;;9.00;6.60;;;;;;;10.28;62.97;99862.36;106064;1258;65803;-74
2023/11/03 07:54:29;;;;;;;8.40;6.70;;;;;;;10.38;62.85;99869.15;106036;1254;61292;-77
2023/11/03 07:56:56;;;;;;;11.40;6.60;;;;;;;10.47;62.61;99864.80;106031;1258;64180;-77
2023/11/03 07:59:23;;;;;;;9.20;5.90;;;;;;;10.58;62.36;99861.89;105701;1254;61766;-74
2023/11/03 08:01:50;;;;;;;8.20;5.90;;;;;;;10.67;61.86;99863.23;105817;1257;61260;-74
2023/11/03 08:04:17;;;;;;;8.40;5.70;;;;;;;10.74;61.59;99865.08;106163;1254;66017;-72
2023/11/03 08:06:47;;;;;;;9.50;5.60;;;;;;;10.82;61.51;99866.85;105737;1257;62467;-70
2023/11/03 08:09:14;;;;;;;8.20;5.40;;;;;;;10.93;61.32;99867.52;105683;1255;64094;-71
2023/11/03 08:11:41;;;;;;;7.50;5.70;;;;;;;11.03;60.72;99869.55;106215;1255;61251;-72
2023/11/03 08:14:08;;;;;;;6.90;5.10;;;;;;;11.11;60.54;99867.57;106269;1256;61139;-72
2023/11/03 08:16:35;;;;;;;7.90;5.70;;;;;;;11.19;60.35;99870.39;105919;1254;66065;-72
2023/11/03 08:19:01;;;;;;;12.90;5.10;;;;;;;11.27;60.38;99870.55;106344;1254;61346;-74
2023/11/03 08:21:30;;;;;;;17.10;13.00;;;;;;;11.36;60.00;99871.16;106602;1254;65734;-73
2023/11/03 08:23:57;;;;;;;12.00;7.80;;;;;;;11.42;59.63;99872.00;106397;1259;61237;-70
2023/11/03 08:26:24;;;;;;;7.40;4.90;;;;;;;11.46;58.90;99867.04;105999;1255;61260;-74
2023/11/03 08:28:51;;;;;;;6.40;4.10;;;;;;;11.48;58.82;99863.90;106360;1256;64636;-72
2023/11/03 08:31:19;;;;;;;8.10;4.20;;;;;;;11.52;58.78;99864.58;106190;1257;61256;-71
2023/11/03 08:33:46;;;;;;;6.40;4.20;;;;;;;11.59;58.72;99861.50;106010;1257;63975;-70
2023/11/03 08:36:12;;;;;;;8.30;4.30;;;;;;;11.66;58.67;99863.67;106331;1254;61444;-73
2023/11/03 08:38:39;;;;;;;6.30;4.30;;;;;;;11.74;58.54;99860.09;105984;1256;61150;-72
2023/11/03 08:41:06;;;;;;;6.10;4.10;;;;;;;11.83;58.26;99861.41;105518;1257;67820;-72
2023/11/03 08:43:33;;;;;;;5.90;3.60;;;;;;;11.90;57.51;99861.10;106269;1257;61353;-70
2023/11/03 08:46:00;;;;;;;6.30;3.40;;;;;;;11.94;56.54;99861.02;105268;1259;66013;-72
2023/11/03 08:48:27;;;;;;;6.90;3.80;;;;;;;11.95;56.37;99856.70;105852;1255;61271;-71
2023/11/03 08:50:54;;;;;;;4.80;3.60;;;;;;;11.97;56.36;99855.81;105229;1254;61335;-73
2023/11/03 08:53:24;;;;;;;6.10;3.70;;;;;;;12.03;56.38;99851.92;105822;1259;66110;-71
2023/11/03 08:55:51;;;;;;;5.90;4.30;;;;;;;12.11;56.27;99849.29;105296;1257;61196;-70
2023/11/03 08:58:18;;;;;;;7.90;4.20;;;;;;;12.19;56.27;99846.73;105487;1259;63889;-70
2023/11/03 09:00:56;;;;;;;9.50;3.90;;;;;;;12.29;56.38;99842.71;105186;1257;61288;-71
2023/11/03 09:03:24;;;;;;;5.30;3.80;;;;;;;12.44;56.40;99839.05;105960;1256;61205;-74
2023/11/03 09:05:51;;;;;;;13.40;8.70;;;;;;;12.59;56.27;99835.44;105337;1258;67734;-72
2023/11/03 09:08:18;;;;;;;5.70;3.60;;;;;;;12.73;55.54;99832.91;105530;1254;61337;-70
2023/11/03 09:10:45;;;;;;;4.60;3.30;;;;;;;12.76;54.53;99828.66;105492;1254;65750;-72
2023/11/03 09:13:12;;;;;;;5.70;3.70;;;;;;;12.75;54.39;99830.54;105418;1258;61477;-74
2023/11/03 09:15:39;;;;;;;4.40;3.40;;;;;;;12.79;54.49;99827.35;105603;1260;61289;-71
2023/11/03 09:18:18;;;;;;;5.00;3.30;;;;;;;12.88;54.15;99826.45;105477;1258;66051;-71
2023/11/03 09:20:45;;;;;;;6.90;3.70;;;;;;;12.95;53.81;99828.05;105284;1259;61474;-70
2023/11/03 09:23:12;;;;;;;6.10;3.70;;;;;;;13.02;53.87;99824.38;105618;1259;64029;-73
2023/11/03 09:25:39;;;;;;;7.70;3.70;;;;;;;13.11;53.95;99824.13;105864;1256;61118;-71
2023/11/03 09:28:07;;;;;;;4.90;3.40;;;;;;;13.28;53.73;99819.40;105581;1257;60226;-73
2023/11/03 09:30:34;;;;;;;4.40;2.50;;;;;;;13.45;53.01;99815.70;105106;1262;68175;-72
2023/11/03 09:33:02;;;;;;;7.10;3.00;;;;;;;13.58;51.69;99812.12;105078;1255;61340;-71
2023/11/03 09:35:29;;;;;;;4.50;2.70;;;;;;;13.66;51.07;99808.59;105313;1257;63916;-73
2023/11/03 09:37:56;;;;;;;5.40;2.80;;;;;;;13.75;51.07;99809.09;105183;1254;61294;-71
2023/11/03 09:40:23;;;;;;;6.10;3.20;;;;;;;13.87;51.08;99807.50;105026;1257;61289;-73
2023/11/03 09:42:50;;;;;;;4.40;3.10;;;;;;;14.04;51.08;99794.33;105298;1259;67910;-70
2023/11/03 09:45:23;;;;;;;7.90;5.60;;;;;;;14.25;51.33;99788.25;105365;1257;61282;-72
2023/11/03 09:47:51;;;;;;;6.70;4.50;;;;;;;14.50;51.04;99785.11;105274;1257;65913;-72
2023/11/03 09:50:20;;;;;;;7.80;3.70;;;;;;;14.69;50.15;99786.64;105519;1255;61449;-75
2023/11/03 09:52:47;;;;;;;7.20;3.60;;;;;;;14.80;50.11;99781.67;105437;1254;61247;-69
2023/11/03 09:55:21;;;;;;;7.90;5.20;;;;;;;14.95;49.94;99779.27;105228;1259;66184;-70
2023/11/03 09:57:51;;;;;;;;;;;;;;;15.06;48.84;99772.55;105667;1254;67429;-70
2023/11/03 10:00:19;;;;;;;6.10;3.40;;;;;;;15.08;48.86;99770.95;105544;1257;64710;-69
2023/11/03 10:02:49;;;;;;;7.30;3.60;;;;;;;15.14;49.17;99763.86;105504;1254;61333;-74
2023/11/03 10:05:18;;;;;;;6.60;4.10;;;;;;;15.20;48.61;99758.64;105455;1255;61244;-84
2023/11/03 10:08:07;;;;;;;7.00;4.30;;;;;;;15.19;48.48;99755.34;105170;1260;66030;-69
2023/11/03 10:10:35;;;;;;;5.50;3.20;;;;;;;15.26;48.53;99755.62;105350;1254;61298;-69
2023/11/03 10:13:09;;;;;;;5.30;3.20;;;;;;;15.33;48.22;99758.73;105138;1257;65816;-70
2023/11/03 10:15:37;;;;;;;;;;;;;;;15.37;48.05;99764.86;105327;1254;60289;-72
2023/11/03 10:18:04;;;;;;;7.50;3.80;;;;;;;15.39;47.56;99766.13;105159;1255;61267;-72
2023/11/03 10:20:31;;;;;;;22.40;15.40;;;;;;;15.37;47.84;99768.39;106279;1254;66013;-69
2023/11/03 10:22:59;;;;;;;9.40;5.50;;;;;;;15.38;48.06;99767.95;107160;1255;60551;-69
2023/11/03 10:25:26;;;;;;;8.50;4.90;;;;;;;15.39;47.98;99768.88;105412;1260;64595;-71
2023/11/03 10:27:54;;;;;;;12.00;5.40;;;;;;;15.30;47.80;99764.76;105306;1260;61219;-72
2023/11/03 10:30:24;;;;;;;7.50;5.10;;;;;;;15.15;48.25;99765.92;105510;1258;61119;-71
2023/11/03 10:32:52;;;;;;;9.20;5.20;;;;;;;15.02;48.73;99771.54;105055;1259;67941;-70
2023/11/03 10:35:19;;;;;;;9.50;5.00;;;;;;;14.91;49.12;99767.28;105314;1254;61356;-70
2023/11/03 10:37:46;;;;;;;8.30;5.60;;;;;;;14.82;49.24;99767.16;105968;1255;63870;-70
2023/11/03 10:40:13;;;;;;;8.50;5.40;;;;;;;14.75;49.40;99765.25;105349;1254;61160;-69
2023/11/03 10:42:48;;;;;;;13.10;5.60;;;;;;;14.69;49.67;99759.52;105104;1257;61368;-75
2023/11/03 10:45:18;;;;;;;9.70;5.60;;;;;;;14.60;49.82;99757.39;105267;1254;66656;-74
2023/11/03 10:48:03;;;;;;;9.00;5.60;;;;;;;14.52;49.89;99752.11;105655;1261;61720;-76
2023/11/03 10:50:37;;;;;;;14.90;5.60;;;;;;;14.45;50.14;99751.10;106017;1254;62623;-71
2023/11/03 10:53:22;;;;;;;15.80;5.80;;;;;;;14.39;50.55;99746.90;105377;1254;61267;-72
2023/11/03 10:56:02;;;;;;;9.50;5.80;;;;;;;14.35;50.62;99739.56;105349;1257;61279;-70
2023/11/03 10:58:49;;;;;;;7.20;5.70;;;;;;;14.26;50.88;99736.68;105133;1255;67521;-70
2023/11/03 11:01:22;;;;;;;88.50;11.00;;;;;;;14.19;50.94;99740.02;105381;1256;61410;-70
2023/11/03 11:03:53;;;;;;;104.50;11.40;;;;;;;14.09;51.05;99737.63;105925;1256;64645;-68
2023/11/03 11:06:25;;;;;;;116.10;13.30;;;;;;;13.97;51.21;99734.98;105291;1257;61344;-68
2023/11/03 11:09:02;;;;;;;9.80;6.20;;;;;;;13.90;51.50;99734.86;105605;1257;61164;-68
2023/11/03 11:11:29;;;;;;;14.70;8.60;;;;;;;13.86;52.21;99737.61;105424;1262;67698;-68
2023/11/03 11:14:15;;;;;;;19.70;12.90;;;;;;;13.79;53.08;99742.39;105056;1257;61337;-72
2023/11/03 11:16:42;;;;;;;15.50;10.00;;;;;;;13.68;53.86;99746.52;105594;1259;62848;-69
2023/11/03 11:19:10;;;;;;;15.10;9.70;;;;;;;13.57;54.28;99749.00;105766;1254;61274;-70
2023/11/03 11:21:38;;;;;;;17.00;10.30;;;;;;;13.48;54.84;99750.49;105771;1255;61151;-69